This is the latest recevied weather packets stored in our database for station/object YC0TBU-3. If no packets are shown the sender has not sent any weather packets the latest 10 day(s).
| Time | Temp. | Humidity | Pressure | Rain* | Wind** | Luminosity | Snow |
|---|---|---|---|---|---|---|---|
| 1787495800 | 32.22° C | 58% | 1016.5 hPa | - | - | - | - |
| 1787494100 | 32.22° C | 57% | 1017.8 hPa | - | - | - | - |
| 1787492400 | 32.78° C | 56% | 1016.9 hPa | - | - | - | - |
| 1787490700 | 32.78° C | 56% | 1016.7 hPa | - | - | - | - |
| 1787489000 | 32.78° C | 56% | 1015.8 hPa | - | - | - | - |
| 1787487300 | 33.33° C | 55% | 1015.5 hPa | - | - | - | - |
| 1787485600 | 33.89° C | 54% | 1014.8 hPa | - | - | - | - |
| 1787483900 | 33.89° C | 51% | 1014.4 hPa | - | - | - | - |
| 1787482200 | 34.44° C | 50% | 1013.7 hPa | - | - | - | - |
| 1787480500 | 35.56° C | 48% | 1013.1 hPa | - | - | - | - |
| 1787478800 | 36.11° C | 45% | 1013.3 hPa | - | - | - | - |
| 1787477100 | 36.67° C | 43% | 1013.6 hPa | - | - | - | - |
| 1787475400 | 37.78° C | 40% | 1013.6 hPa | - | - | - | - |
| 1787473700 | 37.78° C | 42% | 1013 hPa | - | - | - | - |
| 1787472000 | 37.78° C | 43% | 1012.9 hPa | - | - | - | - |
| 1787470306 | 37.78° C | 42% | 1012.6 hPa | - | - | - | - |
| 1787468601 | 37.22° C | 43% | 1013.8 hPa | - | - | - | - |
| 1787466900 | 36.11° C | 45% | 1014 hPa | - | - | - | - |
| 1787465200 | 36.11° C | 43% | 1014.2 hPa | - | - | - | - |
| 1787463501 | 35° C | 44% | 1015.2 hPa | - | - | - | - |
| 1787461800 | 35° C | 45% | 1016.5 hPa | - | - | - | - |
| 1787460101 | 35° C | 46% | 1016.7 hPa | - | - | - | - |
| 1787458401 | 34.44° C | 48% | 1016.2 hPa | - | - | - | - |
| 1787456700 | 33.33° C | 52% | 1016.4 hPa | - | - | - | - |
| 1787455001 | 32.78° C | 54% | 1017.5 hPa | - | - | - | - |
* Rain since midnight (hover to see other rain measurements)
** Current wind speed in m/s (hover to see current wind gust speed)